Time;durP1;ratioP1;P1;durP2;ratioP2;P2;SDS_P1;SDS_P2;PMS_P1;PMS_P2;Temp;Humidity;BMP_temperature;BMP_pressure;BME280_temperature;BME280_humidity;BME280_pressure;Samples;Min_cycle;Max_cycle;Signal;HPM_P1;HPM_P2
2021/07/23 00:00:50;;;;;;;16.33;12.93;;;15.90;99.90;;;16.97;56.82;94366.88;5005686;28;20196;-85
2021/07/23 00:03:17;;;;;;;15.27;11.80;;;15.90;99.90;;;16.93;56.91;94381.94;4988708;28;20191;-86
2021/07/23 00:05:57;;;;;;;15.50;12.87;;;15.80;99.90;;;16.88;57.03;94374.81;5005010;28;20225;-87
2021/07/23 00:08:27;;;;;;;13.90;12.40;;;15.80;99.90;;;16.86;57.23;94379.63;5018187;28;20190;-86
2021/07/23 00:10:53;;;;;;;15.87;13.27;;;15.70;99.90;;;16.77;57.07;94373.38;5021650;28;20228;-84
2021/07/23 00:13:21;;;;;;;15.70;13.83;;;15.70;99.90;;;16.72;57.18;94373.41;5001877;28;20210;-86
2021/07/23 00:15:55;;;;;;;17.43;13.17;;;15.60;99.90;;;16.71;57.46;94371.84;5018958;28;20219;-84
2021/07/23 00:18:31;;;;;;;16.07;12.17;;;15.60;99.90;;;16.72;57.66;94378.00;5035873;28;20206;-84
2021/07/23 00:21:03;;;;;;;15.67;12.50;;;15.60;99.90;;;16.69;57.61;94368.66;5013491;28;20654;-85
2021/07/23 00:23:34;;;;;;;16.97;12.47;;;15.50;99.90;;;16.66;58.04;94371.13;4998621;28;20220;-85
2021/07/23 00:26:02;;;;;;;14.90;12.73;;;15.50;99.90;;;16.61;57.85;94357.81;5015846;28;20653;-84
2021/07/23 00:28:29;;;;;;;20.07;12.87;;;15.50;99.90;;;16.62;58.12;94365.53;4999943;28;20711;-86
2021/07/23 00:31:04;;;;;;;17.43;12.87;;;15.50;99.90;;;16.59;57.98;94368.00;5021276;28;20218;-86
2021/07/23 00:33:30;;;;;;;15.93;12.40;;;15.50;99.90;;;16.52;58.18;94360.31;5017377;28;20222;-86
2021/07/23 00:35:59;;;;;;;15.23;12.60;;;15.40;99.90;;;16.50;58.23;94353.66;5020218;28;20193;-87
2021/07/23 00:38:34;;;;;;;16.13;13.30;;;15.40;99.90;;;16.45;58.55;94362.56;5002646;28;20242;-84
2021/07/23 00:41:00;;;;;;;16.90;13.53;;;15.30;99.90;;;16.40;58.44;94366.09;5004556;28;20195;-86
2021/07/23 00:43:32;;;;;;;17.13;12.80;;;15.30;99.90;;;16.43;58.65;94375.44;5022362;28;20219;-85
2021/07/23 00:46:04;;;;;;;14.93;12.83;;;15.30;99.90;;;16.42;58.48;94379.97;5006216;28;20212;-85
2021/07/23 00:48:45;;;;;;;15.63;13.00;;;15.20;99.90;;;16.43;59.16;94364.72;5025527;28;20196;-83
2021/07/23 00:51:17;;;;;;;15.53;12.50;;;15.30;99.90;;;16.35;58.80;94363.50;5024572;28;20238;-86
2021/07/23 00:53:50;;;;;;;15.97;12.23;;;15.20;99.90;;;16.31;59.14;94359.81;5021728;28;20196;-84
2021/07/23 00:56:17;;;;;;;15.43;13.20;;;15.20;99.90;;;16.25;59.04;94352.94;5024407;28;20323;-86
2021/07/23 00:58:50;;;;;;;17.17;13.63;;;15.10;99.90;;;16.30;59.24;94358.22;5005850;28;20212;-86
2021/07/23 01:01:17;;;;;;;16.00;13.73;;;15.20;99.90;;;16.22;58.71;94350.81;5004129;28;20198;-85
2021/07/23 01:03:45;;;;;;;15.70;13.20;;;15.10;99.90;;;16.20;59.44;94361.03;5037511;28;20194;-86
2021/07/23 01:06:24;;;;;;;15.27;12.57;;;14.60;99.90;;;16.16;59.50;94351.19;5025124;28;20695;-85
2021/07/23 01:08:53;;;;;;;16.80;13.60;;;;;;;16.12;59.69;94348.28;5023609;28;20696;-86
2021/07/23 01:11:24;;;;;;;19.40;14.63;;;15.40;99.90;;;16.03;59.66;94350.03;5015872;28;20652;-86
2021/07/23 01:13:50;;;;;;;17.90;13.20;;;;;;;15.99;59.83;94348.19;5024650;28;20242;-86
2021/07/23 01:16:16;;;;;;;15.63;13.93;;;14.60;99.90;;;15.95;59.70;94339.19;5025333;28;20192;-86
2021/07/23 01:18:42;;;;;;;16.30;13.63;;;14.80;99.90;;;15.89;59.99;94346.44;5005858;28;20204;-86
2021/07/23 01:21:10;;;;;;;16.60;14.43;;;14.80;99.90;;;15.94;60.12;94341.06;5021688;28;20255;-86
2021/07/23 01:23:43;;;;;;;17.53;14.17;;;14.80;99.90;;;15.92;60.07;94345.88;5041531;28;20946;-86
2021/07/23 01:26:10;;;;;;;17.00;14.73;;;14.60;99.90;;;15.92;60.25;94348.53;5005694;28;20189;-86
2021/07/23 01:28:39;;;;;;;15.57;13.83;;;14.80;99.90;;;15.88;60.53;94344.88;5023120;28;20185;-85
2021/07/23 01:31:06;;;;;;;14.93;12.93;;;14.80;99.90;;;15.91;60.46;94341.63;5039115;28;20194;-86
2021/07/23 01:33:35;;;;;;;15.47;13.17;;;14.70;99.90;;;15.87;60.43;94336.06;5025358;28;20204;-86
2021/07/23 01:36:05;;;;;;;16.47;13.57;;;14.70;99.90;;;15.90;60.62;94340.03;5023200;28;20219;-85
2021/07/23 01:38:35;;;;;;;17.23;14.00;;;14.70;99.90;;;15.83;60.76;94336.91;5005052;28;20276;-83
2021/07/23 01:41:08;;;;;;;17.53;13.70;;;14.70;99.90;;;15.80;60.94;94343.63;5019149;28;20250;-86
2021/07/23 01:43:45;;;;;;;21.47;14.03;;;14.60;99.90;;;15.85;60.71;94340.06;5005158;28;20177;-85
2021/07/23 01:46:23;;;;;;;16.97;13.60;;;14.60;99.90;;;15.83;61.00;94336.91;5008594;28;20178;-85
2021/07/23 01:48:51;;;;;;;16.73;13.87;;;14.60;99.90;;;15.78;61.06;94335.06;5011865;28;20192;-86
2021/07/23 01:51:26;;;;;;;17.30;14.00;;;14.60;99.90;;;15.74;61.23;94330.59;5021843;28;20665;-85
2021/07/23 01:53:54;;;;;;;20.17;14.27;;;14.50;99.90;;;15.74;61.31;94338.63;5020579;28;20187;-84
2021/07/23 01:56:28;;;;;;;20.13;14.20;;;14.60;99.90;;;15.79;61.38;94339.34;4991941;28;20283;-85
2021/07/23 01:59:05;;;;;;;18.60;14.47;;;14.50;99.90;;;15.75;61.60;94340.19;5038629;28;20187;-86
2021/07/23 02:02:02;;;;;;;19.63;14.60;;;14.50;99.90;;;15.70;61.45;94326.91;5021235;28;20173;-86
2021/07/23 02:04:44;;;;;;;14.87;13.27;;;14.50;99.90;;;15.64;61.78;94336.06;4946987;28;20219;-85
2021/07/23 02:07:15;;;;;;;16.63;13.53;;;14.40;99.90;;;15.57;61.67;94320.38;4942797;28;20235;-85
2021/07/23 02:09:44;;;;;;;19.27;13.93;;;14.90;99.90;;;15.57;61.99;94324.94;4935403;28;20207;-86
2021/07/23 02:12:12;;;;;;;23.43;14.03;;;14.40;99.90;;;15.56;61.84;94323.31;4946136;28;20176;-85
2021/07/23 02:14:38;;;;;;;15.83;13.07;;;14.40;99.90;;;15.54;62.06;94325.50;4941798;28;20824;-86
2021/07/23 02:17:24;;;;;;;17.33;13.03;;;14.40;99.90;;;15.61;61.97;94337.41;4932448;28;20196;-86
2021/07/23 02:19:52;;;;;;;17.60;14.20;;;14.40;99.90;;;15.55;62.31;94329.75;4955177;28;20198;-85
2021/07/23 02:22:19;;;;;;;18.10;13.97;;;14.40;99.90;;;15.52;62.31;94317.75;4960740;28;20271;-86
2021/07/23 02:25:02;;;;;;;16.63;14.60;;;14.40;99.90;;;15.52;62.55;94330.31;4940301;28;20265;-85
2021/07/23 02:27:40;;;;;;;19.93;15.00;;;14.30;99.90;;;15.52;62.44;94338.31;4957854;28;20223;-85
2021/07/23 02:30:25;;;;;;;18.60;14.63;;;14.80;99.90;;;15.44;63.03;94334.38;4942199;29;20179;-85
2021/07/23 02:32:51;;;;;;;17.57;15.27;;;14.30;99.90;;;15.40;62.45;94320.81;4950737;28;20320;-85
2021/07/23 02:35:32;;;;;;;24.43;15.50;;;14.20;99.90;;;15.45;62.75;94319.13;4954298;28;20284;-85
2021/07/23 02:37:58;;;;;;;18.00;15.07;;;14.50;99.90;;;15.40;63.04;94310.13;4955705;28;20211;-85
2021/07/23 02:40:44;;;;;;;19.30;15.60;;;14.20;99.90;;;15.36;63.09;94322.44;4968819;28;20276;-85
2021/07/23 02:43:14;;;;;;;17.87;15.23;;;14.10;99.90;;;15.38;63.21;94324.81;5015178;28;20200;-86
2021/07/23 02:45:53;;;;;;;18.17;14.43;;;14.10;99.90;;;15.28;63.12;94317.72;5001604;28;20201;-86
2021/07/23 02:48:23;;;;;;;18.67;13.87;;;14.10;99.90;;;15.23;63.44;94327.66;5007066;28;20195;-86
2021/07/23 02:50:59;;;;;;;19.97;15.23;;;14.10;99.90;;;15.20;63.38;94331.69;5016280;28;20193;-85
2021/07/23 02:53:27;;;;;;;18.70;14.67;;;15.20;99.90;;;15.21;63.34;94330.59;4974056;28;20177;-86
2021/07/23 02:56:07;;;;;;;18.70;14.07;;;13.80;99.90;;;15.22;63.66;94323.38;5020289;28;20197;-84
2021/07/23 02:58:46;;;;;;;18.43;14.37;;;14.00;99.90;;;15.18;63.50;94323.16;5003460;28;20192;-84
2021/07/23 03:01:26;;;;;;;18.23;13.43;;;14.70;99.90;;;15.13;63.67;94319.75;5025652;28;20192;-85
2021/07/23 03:04:01;;;;;;;20.67;13.97;;;15.00;99.90;;;15.10;63.84;94321.13;5035219;28;20282;-86
2021/07/23 03:06:30;;;;;;;16.67;13.60;;;14.00;99.90;;;15.05;63.84;94318.47;5022978;28;20251;-86
2021/07/23 03:08:56;;;;;;;19.23;14.17;;;14.00;99.90;;;15.05;64.08;94315.00;5002735;28;20201;-85
2021/07/23 03:11:21;;;;;;;15.97;13.70;;;13.90;99.90;;;15.02;63.73;94319.03;4988877;28;20284;-86
2021/07/23 03:13:47;;;;;;;17.33;14.63;;;13.90;99.90;;;14.96;64.12;94303.34;5034580;28;20176;-85
2021/07/23 03:16:21;;;;;;;16.70;14.07;;;13.90;99.90;;;15.00;64.32;94315.88;4988348;28;20220;-85
2021/07/23 03:18:50;;;;;;;18.57;14.87;;;13.90;99.90;;;14.91;64.25;94306.84;5008332;28;20196;-85
2021/07/23 03:21:27;;;;;;;18.60;14.07;;;14.20;99.90;;;14.93;64.48;94311.94;5015915;28;20662;-85
2021/07/23 03:23:57;;;;;;;19.00;14.90;;;14.40;99.90;;;14.95;64.12;94313.22;4988258;28;20605;-85
2021/07/23 03:26:25;;;;;;;18.57;14.50;;;14.20;99.90;;;14.91;64.35;94311.44;5031622;28;20915;-85
2021/07/23 03:28:51;;;;;;;17.20;14.47;;;13.30;99.90;;;14.88;64.53;94302.88;4992618;28;20204;-85
2021/07/23 03:31:30;;;;;;;18.83;15.73;;;14.60;99.90;;;14.95;64.51;94301.75;5021330;28;20200;-85
2021/07/23 03:34:04;;;;;;;18.77;15.07;;;13.80;99.90;;;14.95;64.73;94302.56;5037351;28;20259;-86
2021/07/23 03:36:39;;;;;;;21.47;16.43;;;13.80;99.90;;;14.94;64.97;94306.28;5024553;28;20196;-85
2021/07/23 03:39:08;;;;;;;20.60;16.23;;;13.80;99.90;;;14.83;64.82;94299.47;5007266;28;20194;-85
2021/07/23 03:41:46;;;;;;;22.97;15.67;;;13.80;99.90;;;14.87;65.10;94303.19;5013820;28;20188;-86
2021/07/23 03:44:39;;;;;;;19.20;14.53;;;13.50;99.90;;;14.79;65.04;94301.09;5003712;28;20222;-85
2021/07/23 03:47:10;;;;;;;17.10;14.03;;;13.60;99.90;;;14.71;65.05;94301.69;4986499;28;20234;-86
2021/07/23 03:49:51;;;;;;;20.23;14.37;;;13.60;99.90;;;14.75;65.25;94308.88;4954494;28;20197;-84
2021/07/23 03:52:26;;;;;;;18.43;14.30;;;13.60;99.90;;;14.80;65.18;94300.03;4962951;28;20232;-85
2021/07/23 03:55:10;;;;;;;18.03;14.43;;;13.60;99.90;;;14.85;65.27;94308.78;4950588;28;20703;-86
2021/07/23 03:57:43;;;;;;;17.93;14.93;;;13.60;99.90;;;14.87;65.41;94303.19;4965867;28;20206;-83
2021/07/23 04:00:18;;;;;;;20.03;15.67;;;13.60;99.90;;;14.82;65.53;94303.22;4939402;28;20353;-81
2021/07/23 04:02:58;;;;;;;19.97;15.60;;;13.60;99.90;;;14.81;65.43;94296.28;4978608;28;20711;-83
2021/07/23 04:05:38;;;;;;;18.73;15.37;;;13.60;99.90;;;14.81;65.42;94298.94;4977429;28;20271;-85
2021/07/23 04:08:06;;;;;;;19.90;14.63;;;13.70;99.90;;;14.87;65.63;94297.84;4962265;28;20202;-84
2021/07/23 04:10:35;;;;;;;18.80;15.37;;;13.60;99.90;;;14.87;65.71;94289.84;4962706;28;20194;-84
2021/07/23 04:13:00;;;;;;;21.40;16.53;;;13.70;99.90;;;14.91;65.84;94296.19;4981342;28;20206;-84
2021/07/23 04:15:28;;;;;;;19.23;16.50;;;14.10;99.90;;;14.91;66.05;94298.09;4951460;28;20198;-83
2021/07/23 04:17:54;;;;;;;18.17;15.03;;;13.70;99.90;;;14.89;66.06;94301.00;4956434;28;20190;-85
2021/07/23 04:20:23;;;;;;;20.80;16.47;;;13.70;99.90;;;14.96;66.21;94304.16;4954628;28;20201;-86
2021/07/23 04:22:55;;;;;;;22.20;17.83;;;13.70;99.90;;;14.99;66.30;94313.47;4960882;28;20264;-85
2021/07/23 04:25:31;;;;;;;20.87;15.60;;;13.70;99.90;;;15.10;66.35;94302.44;5009565;28;20263;-83
2021/07/23 04:28:04;;;;;;;17.77;15.40;;;13.80;99.90;;;15.16;66.31;94309.31;5045236;28;20228;-84
2021/07/23 04:30:40;;;;;;;18.20;15.60;;;13.90;99.90;;;15.24;66.35;94308.66;5010257;28;20536;-84
2021/07/23 04:33:32;;;;;;;18.03;15.77;;;14.00;99.90;;;15.28;66.66;94307.03;5026792;28;20192;-84
2021/07/23 04:36:00;;;;;;;22.27;15.27;;;14.00;99.90;;;15.33;66.59;94311.53;4925250;29;20267;-83
2021/07/23 04:38:27;;;;;;;23.40;15.63;;;14.00;99.90;;;15.32;66.77;94313.41;4928886;29;20203;-86
2021/07/23 04:40:53;;;;;;;19.87;15.57;;;14.10;99.90;;;15.37;66.60;94315.22;4940647;29;20860;-84
2021/07/23 04:43:21;;;;;;;22.03;15.60;;;14.10;99.90;;;15.48;66.77;94300.69;4941583;29;20326;-87
2021/07/23 04:45:48;;;;;;;24.33;16.20;;;14.30;99.90;;;15.53;66.81;94311.34;4941865;29;20712;-87
2021/07/23 04:48:15;;;;;;;18.53;15.33;;;14.30;99.90;;;15.56;66.95;94320.66;4938029;29;20198;-89
2021/07/23 04:50:42;;;;;;;18.30;14.80;;;14.40;99.90;;;15.65;66.93;94316.25;4937461;29;20219;-88
2021/07/23 04:53:17;;;;;;;17.70;15.60;;;15.10;99.90;;;15.77;66.92;94316.66;4956563;29;20355;-92
2021/07/23 04:55:49;;;;;;;20.20;16.07;;;14.60;99.90;;;15.83;67.07;94313.66;4939035;29;20563;-88
2021/07/23 04:58:16;;;;;;;17.07;15.27;;;14.70;99.90;;;15.94;67.20;94321.53;4956779;28;20194;-88
2021/07/23 05:00:53;;;;;;;18.03;14.57;;;14.80;99.90;;;16.10;67.23;94326.41;4936014;29;20199;-88
2021/07/23 05:03:40;;;;;;;19.53;13.93;;;14.90;99.90;;;16.16;67.18;94325.25;4941206;29;20202;-87
2021/07/23 05:06:15;;;;;;;16.87;14.17;;;15.00;99.90;;;16.28;67.18;94322.91;4937527;29;20248;-88
2021/07/23 05:08:41;;;;;;;16.07;13.30;;;15.10;99.90;;;16.36;67.05;94322.28;4927861;28;20204;-90
2021/07/23 05:11:10;;;;;;;19.30;13.70;;;15.20;99.90;;;16.47;67.39;94328.28;4942855;29;20198;-87
2021/07/23 05:13:39;;;;;;;15.77;14.00;;;15.30;99.90;;;16.54;67.32;94323.38;5014682;28;20208;-88
2021/07/23 05:16:05;;;;;;;15.40;13.00;;;15.40;99.90;;;16.64;67.27;94317.09;5024931;28;20195;-88
2021/07/23 05:18:38;;;;;;;16.97;14.43;;;15.50;99.90;;;16.80;67.54;94337.19;4990969;28;20193;-88
2021/07/23 05:21:10;;;;;;;16.37;14.27;;;15.60;99.90;;;16.96;67.49;94325.13;5007829;28;20186;-88
2021/07/23 05:23:40;;;;;;;15.00;13.50;;;15.80;99.90;;;17.02;67.54;94323.19;5006923;28;20256;-86
2021/07/23 05:26:06;;;;;;;17.73;14.73;;;15.90;99.90;;;17.12;67.82;94323.00;5011532;28;20217;-87
2021/07/23 05:28:52;;;;;;;19.30;14.63;;;16.00;99.90;;;17.26;67.52;94329.97;5025025;28;20197;-87
2021/07/23 05:31:18;;;;;;;17.60;14.83;;;;;;;17.35;67.79;94322.06;5024971;28;20659;-87
2021/07/23 05:33:44;;;;;;;18.13;14.67;;;;;;;17.47;67.59;94325.03;5008178;28;20314;-87
2021/07/23 05:36:14;;;;;;;20.67;15.63;;;16.70;99.90;;;17.65;67.75;94326.06;5021644;28;20208;-87
2021/07/23 05:38:49;;;;;;;21.93;15.50;;;16.70;99.90;;;17.85;68.00;94331.84;5017786;28;20205;-87
2021/07/23 05:41:16;;;;;;;17.13;14.30;;;16.80;99.90;;;18.06;67.87;94326.06;5007537;28;20248;-88
2021/07/23 05:43:42;;;;;;;18.53;15.07;;;17.00;99.90;;;18.27;67.79;94325.31;5018987;28;20201;-87
2021/07/23 05:46:13;;;;;;;20.57;14.07;;;17.20;99.90;;;18.58;67.75;94333.53;5018869;28;20306;-87
2021/07/23 05:48:40;;;;;;;16.80;14.37;;;17.40;99.90;;;19.21;67.73;94349.47;5023272;28;20345;-88
2021/07/23 05:51:12;;;;;;;24.13;15.03;;;17.90;99.90;;;20.22;67.92;94354.84;5002321;28;20192;-89
2021/07/23 05:53:42;;;;;;;14.97;13.40;;;19.00;99.90;;;21.15;67.81;94360.69;5021193;28;20552;-86
2021/07/23 05:56:08;;;;;;;15.17;12.87;;;20.10;99.90;;;21.98;67.49;94339.53;5009362;28;20226;-87
2021/07/23 05:58:35;;;;;;;14.20;12.20;;;21.20;99.90;;;23.00;67.57;94354.31;5022695;28;20200;-87
2021/07/23 06:01:07;;;;;;;14.03;12.57;;;22.30;99.90;;;23.74;67.43;94337.22;5003908;28;20544;-86
2021/07/23 06:03:40;;;;;;;14.63;12.70;;;23.20;99.90;;;24.50;67.14;94347.44;5006582;28;20196;-86
2021/07/23 06:06:07;;;;;;;14.63;12.90;;;24.10;99.90;;;25.10;66.59;94351.19;5013703;28;20656;-86
2021/07/23 06:08:33;;;;;;;14.97;13.37;;;24.90;99.90;;;26.44;66.44;94360.19;5017961;28;20189;-86
2021/07/23 06:11:11;;;;;;;13.20;11.80;;;24.90;99.90;;;27.24;66.39;94365.88;4991330;28;20204;-86
2021/07/23 06:13:37;;;;;;;14.40;12.43;;;27.00;99.90;;;28.12;66.14;94334.09;5001995;28;20185;-87
2021/07/23 06:16:22;;;;;;;13.20;11.80;;;28.00;99.90;;;29.28;65.18;94391.66;5030186;28;20225;-88
2021/07/23 06:18:50;;;;;;;14.73;12.07;;;29.10;99.90;;;29.99;64.91;94335.84;5026271;28;20204;-88
2021/07/23 06:21:20;;;;;;;13.23;11.83;;;29.90;99.90;;;30.07;64.54;94347.66;5004238;28;20212;-87
2021/07/23 06:23:48;;;;;;;12.93;11.57;;;30.30;99.90;;;30.23;64.23;94309.88;5039214;28;20680;-88
2021/07/23 06:26:19;;;;;;;14.50;11.40;;;31.20;99.90;;;30.73;64.05;94352.91;5007187;28;20191;-88
2021/07/23 06:28:45;;;;;;;13.50;11.63;;;31.30;99.90;;;30.86;63.10;94342.44;5004314;28;20196;-87
2021/07/23 06:31:17;;;;;;;14.00;12.50;;;31.50;99.90;;;30.13;63.24;94262.16;5022904;28;20208;-88
2021/07/23 06:33:47;;;;;;;13.53;12.13;;;31.30;99.90;;;30.53;62.53;94288.66;5019032;28;20347;-88
2021/07/23 06:36:14;;;;;;;17.40;13.20;;;31.40;99.90;;;29.29;62.33;94303.06;5002255;28;20239;-88
2021/07/23 06:38:40;;;;;;;17.30;12.43;;;30.40;99.90;;;30.14;62.03;94347.72;5021445;28;20196;-88
2021/07/23 06:41:22;;;;;;;17.53;12.20;;;30.70;99.90;;;31.43;61.36;94360.75;5007201;28;20196;-86
2021/07/23 06:43:55;;;;;;;14.03;12.47;;;31.70;99.90;;;30.94;61.27;94327.63;5024829;28;20194;-87
2021/07/23 06:46:22;;;;;;;14.43;12.90;;;31.60;99.90;;;30.20;61.07;94264.16;5026635;28;20195;-88
2021/07/23 06:48:59;;;;;;;15.13;12.60;;;31.30;99.90;;;30.22;60.40;94470.50;5011142;28;20287;-89
2021/07/23 06:51:26;;;;;;;14.20;12.67;;;30.90;99.90;;;30.09;60.63;94275.00;5008746;28;20219;-86
2021/07/23 06:53:59;;;;;;;14.37;12.97;;;30.80;99.90;;;30.61;60.04;94314.13;5019453;28;20204;-88
2021/07/23 06:56:34;;;;;;;14.37;12.97;;;31.10;99.90;;;30.49;59.93;94359.78;5003337;28;20192;-87
2021/07/23 06:59:00;;;;;;;16.53;12.57;;;31.10;99.90;;;30.95;59.52;94288.91;5032881;28;20245;-87
2021/07/23 07:01:32;;;;;;;14.00;12.60;;;31.40;99.90;;;30.79;59.17;94310.31;5018508;28;20185;-87
2021/07/23 07:04:00;;;;;;;17.10;13.73;;;31.30;99.20;;;30.87;59.06;94363.97;5035673;28;20192;-90
2021/07/23 07:06:27;;;;;;;13.93;12.50;;;31.30;99.30;;;30.52;58.58;94267.94;5038276;28;20205;-87
2021/07/23 07:08:52;;;;;;;13.80;12.40;;;31.00;99.90;;;30.18;58.43;94335.66;5000609;28;20259;-88
2021/07/23 07:11:18;;;;;;;17.33;13.77;;;30.50;97.90;;;29.29;58.18;94248.44;5020890;28;20248;-88
2021/07/23 07:13:44;;;;;;;14.63;13.30;;;29.70;99.90;;;28.68;57.82;94295.22;4999138;28;20192;-87
2021/07/23 07:16:11;;;;;;;15.97;14.17;;;28.90;99.90;;;28.20;58.05;94305.81;5002944;28;20654;-87
2021/07/23 07:18:41;;;;;;;15.60;13.37;;;28.20;99.90;;;28.51;57.77;94312.91;5027008;28;20196;-88
2021/07/23 07:21:23;;;;;;;16.50;12.53;;;28.10;99.90;;;28.02;57.47;94315.59;5019353;28;20184;-86
2021/07/23 07:23:50;;;;;;;15.67;14.10;;;27.50;99.90;;;27.48;57.57;94302.97;5034279;28;20198;-89
2021/07/23 07:26:24;;;;;;;16.43;14.73;;;26.90;99.90;;;27.94;57.42;94358.28;4989897;28;20208;-88
2021/07/23 07:28:57;;;;;;;16.37;13.57;;;26.90;99.90;;;28.22;57.24;94363.50;4977728;28;20199;-87
2021/07/23 07:31:42;;;;;;;14.00;12.60;;;27.20;99.90;;;28.58;57.19;94340.28;5001273;28;20197;-89
2021/07/23 07:34:13;;;;;;;16.40;13.53;;;27.70;99.90;;;29.37;56.90;94332.84;5019985;28;20191;-87
2021/07/23 07:36:42;;;;;;;14.93;13.33;;;28.50;99.90;;;30.45;56.41;94287.03;5033484;28;20667;-85
2021/07/23 07:39:13;;;;;;;15.70;13.97;;;31.90;99.90;;;31.39;55.88;94337.28;5001053;28;20204;-85
2021/07/23 07:41:39;;;;;;;14.73;13.07;;;32.30;99.90;;;32.38;55.27;94294.41;5020514;28;20195;-85
2021/07/23 07:44:05;;;;;;;13.87;12.60;;;32.30;98.70;;;33.33;55.09;94347.63;5018352;28;20542;-86
2021/07/23 07:46:31;;;;;;;14.20;12.70;;;34.90;98.40;;;34.67;54.68;94382.72;5018672;28;20203;-87
2021/07/23 07:48:58;;;;;;;14.53;12.97;;;35.50;95.90;;;34.78;54.35;94311.00;5032677;28;20282;-89
2021/07/23 07:51:24;;;;;;;16.88;12.57;;;35.40;93.10;;;35.01;54.22;94284.38;5020357;28;20196;-86
2021/07/23 07:53:50;;;;;;;14.60;13.10;;;35.90;91.50;;;35.35;53.82;94317.50;5003293;28;20200;-88
2021/07/23 07:56:18;;;;;;;14.95;13.50;;;36.60;90.00;;;35.39;53.38;94227.22;5016168;28;20222;-86
2021/07/23 07:58:46;;;;;;;14.27;12.85;;;36.80;87.90;;;35.34;53.11;94247.00;5004455;28;20199;-88
2021/07/23 08:01:14;;;;;;;14.63;13.18;;;36.70;88.10;;;36.12;52.30;94402.53;5002437;28;20196;-86
2021/07/23 08:03:45;;;;;;;13.75;12.40;;;37.40;85.00;;;37.00;51.77;94304.44;5019693;28;20204;-85
2021/07/23 08:06:36;;;;;;;14.07;12.68;;;38.70;81.30;;;37.95;51.70;94265.75;5017446;28;20245;-86
2021/07/23 08:09:04;;;;;;;14.63;13.20;;;39.60;78.90;;;35.51;51.61;94239.66;4983022;28;1122096;-86
2021/07/23 08:11:32;;;;;;;13.43;12.23;;;37.50;80.60;;;36.60;50.60;94355.28;5018735;28;20192;-85
2021/07/23 08:14:01;;;;;;;14.55;12.43;;;38.60;78.00;;;37.25;50.48;94318.59;5029492;28;20197;-86
2021/07/23 08:16:33;;;;;;;13.10;11.82;;;39.20;74.90;;;38.07;49.98;94319.69;5002378;28;20618;-89
2021/07/23 08:19:11;;;;;;;14.07;12.65;;;39.70;73.70;;;37.94;49.29;94305.75;5018950;28;20192;-87
2021/07/23 08:21:38;;;;;;;14.70;12.05;;;40.20;71.30;;;37.13;49.34;94308.16;5032610;28;20216;-83
2021/07/23 08:24:04;;;;;;;14.00;12.68;;;39.30;73.90;;;37.49;48.53;94275.06;5008157;28;20282;-86
2021/07/23 08:26:42;;;;;;;13.32;12.02;;;39.70;72.60;;;37.91;48.30;94371.03;5013847;28;20199;-86
2021/07/23 08:29:13;;;;;;;12.88;11.80;;;39.90;70.10;;;37.57;47.42;94308.91;5005227;28;20194;-87
2021/07/23 08:31:40;;;;;;;13.70;12.40;;;39.70;68.90;;;39.10;47.60;94316.00;5003600;28;20196;-88
2021/07/23 08:34:07;;;;;;;15.45;11.45;;;40.80;68.00;;;39.71;46.97;94210.44;5019080;28;20192;-86
2021/07/23 08:36:35;;;;;;;13.68;12.45;;;41.90;68.70;;;38.74;46.60;94215.53;5017141;28;20576;-86
2021/07/23 08:39:04;;;;;;;13.25;12.02;;;41.00;67.60;;;39.58;46.23;94231.03;5004189;28;20235;-87
2021/07/23 08:41:36;;;;;;;12.48;11.27;;;42.10;65.00;;;38.56;46.01;94213.22;5018305;28;20252;-85
2021/07/23 08:44:15;;;;;;;13.88;12.57;;;41.30;64.70;;;38.36;45.36;94299.22;5035342;28;20202;-84
2021/07/23 08:46:41;;;;;;;14.15;12.75;;;41.00;63.90;;;39.33;44.53;94357.44;5017908;28;20195;-86
2021/07/23 08:49:10;;;;;;;13.75;12.50;;;41.60;63.40;;;39.46;44.64;94250.00;5015706;28;20203;-88
2021/07/23 08:51:40;;;;;;;14.38;12.45;;;42.00;61.90;;;40.83;43.86;94299.72;5021891;28;20258;-87
2021/07/23 08:54:11;;;;;;;13.55;12.35;;;43.50;63.20;;;42.37;42.90;94352.31;5006524;28;20201;-84
2021/07/23 08:56:58;;;;;;;13.60;12.30;;;44.70;58.20;;;42.21;43.11;94286.41;5032856;28;20184;-86
2021/07/23 08:59:26;;;;;;;14.20;12.75;;;44.60;58.30;;;41.06;42.52;94072.44;5016724;28;20267;-84
2021/07/23 09:02:07;;;;;;;14.23;12.90;;;43.90;57.30;;;40.77;42.21;94309.88;5018703;28;20203;-84
2021/07/23 09:04:36;;;;;;;13.82;12.52;;;43.50;58.90;;;39.54;41.87;94183.94;5015101;28;20204;-85
2021/07/23 09:07:15;;;;;;;13.82;12.57;;;42.60;61.30;;;39.84;41.46;94294.53;5005845;28;20204;-83
2021/07/23 09:10:07;;;;;;;13.75;12.55;;;42.90;60.00;;;39.11;41.41;94164.22;5039352;28;20196;-87
2021/07/23 09:12:50;;;;;;;13.40;12.10;;;42.70;60.20;;;39.66;40.98;94312.88;5011313;28;20197;-87
2021/07/23 09:15:29;;;;;;;14.52;13.15;;;42.80;61.20;;;38.79;40.85;94215.78;5017709;28;20828;-87
2021/07/23 09:17:56;;;;;;;14.88;13.40;;;42.20;61.20;;;40.25;40.57;94317.91;5007525;28;20180;-87
2021/07/23 09:20:28;;;;;;;13.65;12.45;;;43.20;60.60;;;40.40;39.84;94238.41;5023412;28;20189;-86
2021/07/23 09:23:02;;;;;;;14.30;13.00;;;43.70;58.90;;;40.54;40.13;94281.66;5035836;28;20189;-88
2021/07/23 09:25:43;;;;;;;12.88;11.68;;;44.00;57.90;;;41.99;39.43;94321.09;5023997;28;20578;-87
2021/07/23 09:28:28;;;;;;;14.65;13.35;;;45.40;56.50;;;41.86;38.75;94385.28;5046434;28;20296;-87
2021/07/23 09:31:02;;;;;;;13.85;12.75;;;45.30;55.50;;;40.73;38.78;94163.84;5018828;28;20180;-86
2021/07/23 09:33:37;;;;;;;14.85;13.45;;;43.90;54.70;;;40.07;38.72;94306.53;5020227;28;20199;-88
2021/07/23 09:36:09;;;;;;;14.45;13.25;;;43.00;56.70;;;39.90;38.49;94272.53;5007176;28;20199;-87
2021/07/23 09:39:03;;;;;;;13.65;12.35;;;42.60;58.70;;;41.06;37.81;94329.19;5008777;28;20198;-87
2021/07/23 09:41:33;;;;;;;13.85;12.55;;;43.50;56.00;;;40.66;37.55;94166.88;4926533;28;20858;-89
2021/07/23 09:44:08;;;;;;;15.25;13.73;;;43.40;56.90;;;39.58;37.66;94195.72;4952991;29;20206;-85
2021/07/23 09:46:46;;;;;;;14.85;13.40;;;42.20;69.30;;;40.61;37.25;94359.28;4946583;28;20207;-82
2021/07/23 09:49:31;;;;;;;14.25;12.80;;;43.20;57.40;;;40.89;36.92;94202.59;4966384;28;20254;-87
2021/07/23 09:52:05;;;;;;;15.05;13.57;;;43.70;57.10;;;40.76;36.46;94176.84;4948999;28;20194;-87
2021/07/23 09:54:34;;;;;;;14.88;12.77;;;43.80;55.10;;;40.22;36.44;94107.59;4962967;28;20309;-83
2021/07/23 09:57:03;;;;;;;13.85;12.50;;;43.50;56.60;;;39.70;36.05;94174.75;4959557;28;20269;-87
2021/07/23 09:59:53;;;;;;;14.60;13.20;;;42.90;57.90;;;38.77;36.14;94168.31;4959900;28;20206;-84
2021/07/23 10:02:28;;;;;;;13.57;12.27;;;42.00;58.90;;;38.92;36.18;94207.53;4940574;29;20238;-86
2021/07/23 10:05:01;;;;;;;15.25;13.50;;;41.50;60.70;;;40.25;35.83;94385.41;4956102;28;20272;-87
2021/07/23 10:07:45;;;;;;;15.23;13.73;;;42.20;57.30;;;41.31;35.69;94203.84;4947497;28;20540;-85
2021/07/23 10:10:14;;;;;;;14.10;12.80;;;43.60;56.70;;;40.55;35.63;94147.00;4984149;28;20261;-87
2021/07/23 10:12:43;;;;;;;15.02;13.48;;;43.10;55.80;;;40.97;35.26;94260.31;4956221;28;20206;-85
2021/07/23 10:15:12;;;;;;;14.82;13.52;;;43.70;56.10;;;42.00;34.84;94278.84;4993494;28;20202;-85
2021/07/23 10:17:38;;;;;;;13.88;12.60;;;44.70;56.50;;;42.46;34.61;94226.84;4983691;28;20184;-83
2021/07/23 10:20:09;;;;;;;14.38;13.05;;;45.10;55.20;;;43.11;34.33;94206.19;4988086;28;20192;-87
2021/07/23 10:22:42;;;;;;;13.85;12.55;;;46.00;54.20;;;43.06;34.11;94148.94;5030104;28;20980;-87
2021/07/23 10:25:12;;;;;;;14.20;13.00;;;46.50;54.80;;;43.02;34.44;94225.69;5023917;28;20188;-88
2021/07/23 10:27:50;;;;;;;14.35;12.98;;;46.30;54.40;;;41.92;33.76;94139.03;5012277;28;20173;-86